sensor_id;sensor_type;location;lat;lon;timestamp;P1;durP1;ratioP1;P2;durP2;ratioP2
31716;SDS011;18301;51.076;17.046;2024-01-30T00:01:40;12.18;;;6.03;;
31716;SDS011;18301;51.076;17.046;2024-01-30T00:06:43;12.88;;;6.35;;
31716;SDS011;18301;51.076;17.046;2024-01-30T00:11:45;15.57;;;7.03;;
31716;SDS011;18301;51.076;17.046;2024-01-30T00:16:46;13.55;;;6.80;;
31716;SDS011;18301;51.076;17.046;2024-01-30T00:21:48;17.00;;;7.28;;
31716;SDS011;18301;51.076;17.046;2024-01-30T00:26:50;17.10;;;7.72;;
31716;SDS011;18301;51.076;17.046;2024-01-30T00:31:51;16.58;;;8.15;;
31716;SDS011;18301;51.076;17.046;2024-01-30T00:36:54;18.35;;;7.60;;
31716;SDS011;18301;51.076;17.046;2024-01-30T00:41:55;15.60;;;8.02;;
31716;SDS011;18301;51.076;17.046;2024-01-30T00:46:57;13.65;;;7.28;;
31716;SDS011;18301;51.076;17.046;2024-01-30T00:51:59;17.30;;;7.97;;
31716;SDS011;18301;51.076;17.046;2024-01-30T00:57:00;14.98;;;8.27;;
31716;SDS011;18301;51.076;17.046;2024-01-30T01:02:02;18.02;;;8.68;;
31716;SDS011;18301;51.076;17.046;2024-01-30T01:07:04;14.85;;;8.32;;
31716;SDS011;18301;51.076;17.046;2024-01-30T01:12:06;19.23;;;8.77;;
31716;SDS011;18301;51.076;17.046;2024-01-30T01:17:08;16.85;;;8.43;;
31716;SDS011;18301;51.076;17.046;2024-01-30T01:22:09;18.73;;;8.40;;
31716;SDS011;18301;51.076;17.046;2024-01-30T01:27:11;14.07;;;7.90;;
31716;SDS011;18301;51.076;17.046;2024-01-30T01:32:13;17.33;;;8.05;;
31716;SDS011;18301;51.076;17.046;2024-01-30T01:37:15;17.80;;;8.77;;
31716;SDS011;18301;51.076;17.046;2024-01-30T01:42:17;18.40;;;8.75;;
31716;SDS011;18301;51.076;17.046;2024-01-30T01:47:18;20.00;;;9.18;;
31716;SDS011;18301;51.076;17.046;2024-01-30T01:52:20;16.88;;;8.50;;
31716;SDS011;18301;51.076;17.046;2024-01-30T01:57:22;21.30;;;8.43;;
31716;SDS011;18301;51.076;17.046;2024-01-30T02:02:24;19.02;;;8.27;;
31716;SDS011;18301;51.076;17.046;2024-01-30T02:07:27;18.60;;;9.55;;
31716;SDS011;18301;51.076;17.046;2024-01-30T02:12:29;19.15;;;9.38;;
31716;SDS011;18301;51.076;17.046;2024-01-30T02:17:31;19.27;;;10.15;;
31716;SDS011;18301;51.076;17.046;2024-01-30T02:22:33;19.42;;;8.77;;
31716;SDS011;18301;51.076;17.046;2024-01-30T02:27:36;18.25;;;8.80;;
31716;SDS011;18301;51.076;17.046;2024-01-30T02:32:38;22.88;;;9.75;;
31716;SDS011;18301;51.076;17.046;2024-01-30T02:37:40;22.00;;;9.60;;
31716;SDS011;18301;51.076;17.046;2024-01-30T02:42:41;21.13;;;9.63;;
31716;SDS011;18301;51.076;17.046;2024-01-30T02:47:43;22.58;;;9.63;;
31716;SDS011;18301;51.076;17.046;2024-01-30T02:52:45;20.35;;;8.45;;
31716;SDS011;18301;51.076;17.046;2024-01-30T02:57:47;18.65;;;8.50;;
31716;SDS011;18301;51.076;17.046;2024-01-30T03:02:49;16.13;;;8.55;;
31716;SDS011;18301;51.076;17.046;2024-01-30T03:07:51;17.55;;;9.25;;
31716;SDS011;18301;51.076;17.046;2024-01-30T03:12:53;19.13;;;8.40;;
31716;SDS011;18301;51.076;17.046;2024-01-30T03:17:54;18.23;;;8.70;;
31716;SDS011;18301;51.076;17.046;2024-01-30T03:22:56;18.67;;;8.63;;
31716;SDS011;18301;51.076;17.046;2024-01-30T03:27:58;17.77;;;8.77;;
31716;SDS011;18301;51.076;17.046;2024-01-30T03:33:00;18.17;;;8.85;;
31716;SDS011;18301;51.076;17.046;2024-01-30T03:38:02;18.83;;;8.63;;
31716;SDS011;18301;51.076;17.046;2024-01-30T03:43:03;18.45;;;9.02;;
31716;SDS011;18301;51.076;17.046;2024-01-30T03:48:06;16.95;;;8.77;;
31716;SDS011;18301;51.076;17.046;2024-01-30T03:53:08;20.20;;;8.13;;
31716;SDS011;18301;51.076;17.046;2024-01-30T03:58:10;14.10;;;8.27;;
31716;SDS011;18301;51.076;17.046;2024-01-30T04:03:11;18.02;;;8.30;;
31716;SDS011;18301;51.076;17.046;2024-01-30T04:08:13;17.15;;;8.93;;
31716;SDS011;18301;51.076;17.046;2024-01-30T04:13:15;17.42;;;8.98;;
31716;SDS011;18301;51.076;17.046;2024-01-30T04:18:17;18.05;;;8.57;;
31716;SDS011;18301;51.076;17.046;2024-01-30T04:23:18;20.92;;;9.60;;
31716;SDS011;18301;51.076;17.046;2024-01-30T04:28:20;18.67;;;9.20;;
31716;SDS011;18301;51.076;17.046;2024-01-30T04:33:22;20.20;;;9.98;;
31716;SDS011;18301;51.076;17.046;2024-01-30T04:38:23;19.67;;;9.02;;
31716;SDS011;18301;51.076;17.046;2024-01-30T04:43:25;20.13;;;9.77;;
31716;SDS011;18301;51.076;17.046;2024-01-30T04:48:27;19.02;;;9.30;;
31716;SDS011;18301;51.076;17.046;2024-01-30T04:53:30;19.08;;;9.98;;
31716;SDS011;18301;51.076;17.046;2024-01-30T04:58:32;19.92;;;9.43;;
31716;SDS011;18301;51.076;17.046;2024-01-30T05:03:34;17.02;;;9.00;;
31716;SDS011;18301;51.076;17.046;2024-01-30T05:08:36;18.35;;;8.18;;
31716;SDS011;18301;51.076;17.046;2024-01-30T05:13:38;16.42;;;8.40;;
31716;SDS011;18301;51.076;17.046;2024-01-30T05:18:39;17.77;;;8.50;;
31716;SDS011;18301;51.076;17.046;2024-01-30T05:23:41;17.13;;;9.05;;
31716;SDS011;18301;51.076;17.046;2024-01-30T05:28:43;15.73;;;8.57;;
31716;SDS011;18301;51.076;17.046;2024-01-30T05:33:49;17.30;;;8.48;;
31716;SDS011;18301;51.076;17.046;2024-01-30T05:38:51;17.05;;;9.43;;
31716;SDS011;18301;51.076;17.046;2024-01-30T05:43:53;19.05;;;8.50;;
31716;SDS011;18301;51.076;17.046;2024-01-30T05:48:54;16.75;;;8.13;;
31716;SDS011;18301;51.076;17.046;2024-01-30T05:53:56;16.50;;;9.10;;
31716;SDS011;18301;51.076;17.046;2024-01-30T05:58:58;16.83;;;8.30;;
31716;SDS011;18301;51.076;17.046;2024-01-30T06:03:59;17.60;;;8.32;;
31716;SDS011;18301;51.076;17.046;2024-01-30T06:09:02;15.98;;;8.00;;
31716;SDS011;18301;51.076;17.046;2024-01-30T06:14:04;18.80;;;7.93;;
31716;SDS011;18301;51.076;17.046;2024-01-30T06:19:06;15.38;;;7.57;;
31716;SDS011;18301;51.076;17.046;2024-01-30T06:24:07;17.80;;;8.93;;
31716;SDS011;18301;51.076;17.046;2024-01-30T06:29:09;22.85;;;11.93;;
31716;SDS011;18301;51.076;17.046;2024-01-30T06:34:11;20.90;;;10.77;;
31716;SDS011;18301;51.076;17.046;2024-01-30T06:39:13;14.30;;;7.80;;
31716;SDS011;18301;51.076;17.046;2024-01-30T06:44:15;25.00;;;10.75;;
31716;SDS011;18301;51.076;17.046;2024-01-30T06:49:16;22.85;;;11.80;;
31716;SDS011;18301;51.076;17.046;2024-01-30T06:54:18;21.10;;;10.18;;
31716;SDS011;18301;51.076;17.046;2024-01-30T06:59:20;24.23;;;11.85;;
31716;SDS011;18301;51.076;17.046;2024-01-30T07:04:21;23.98;;;11.82;;
31716;SDS011;18301;51.076;17.046;2024-01-30T07:09:23;24.70;;;11.65;;
31716;SDS011;18301;51.076;17.046;2024-01-30T07:14:25;23.50;;;11.25;;
31716;SDS011;18301;51.076;17.046;2024-01-30T07:19:26;20.50;;;11.07;;
31716;SDS011;18301;51.076;17.046;2024-01-30T07:24:28;20.08;;;9.45;;
31716;SDS011;18301;51.076;17.046;2024-01-30T07:29:30;14.88;;;7.78;;
31716;SDS011;18301;51.076;17.046;2024-01-30T07:34:32;18.42;;;8.52;;
31716;SDS011;18301;51.076;17.046;2024-01-30T07:39:39;18.77;;;9.25;;
31716;SDS011;18301;51.076;17.046;2024-01-30T07:44:41;26.45;;;10.85;;
31716;SDS011;18301;51.076;17.046;2024-01-30T07:49:42;21.27;;;9.85;;
31716;SDS011;18301;51.076;17.046;2024-01-30T07:54:44;22.75;;;10.88;;
31716;SDS011;18301;51.076;17.046;2024-01-30T07:59:46;28.13;;;10.32;;
31716;SDS011;18301;51.076;17.046;2024-01-30T08:04:47;18.73;;;9.95;;
31716;SDS011;18301;51.076;17.046;2024-01-30T08:09:51;17.00;;;8.48;;
31716;SDS011;18301;51.076;17.046;2024-01-30T08:14:52;13.68;;;7.28;;
31716;SDS011;18301;51.076;17.046;2024-01-30T08:19:54;13.20;;;6.32;;
31716;SDS011;18301;51.076;17.046;2024-01-30T08:24:56;14.02;;;7.03;;
31716;SDS011;18301;51.076;17.046;2024-01-30T08:29:58;14.63;;;7.20;;
31716;SDS011;18301;51.076;17.046;2024-01-30T08:34:59;11.88;;;6.10;;
31716;SDS011;18301;51.076;17.046;2024-01-30T08:40:05;11.10;;;6.20;;
31716;SDS011;18301;51.076;17.046;2024-01-30T08:45:08;10.35;;;5.53;;
31716;SDS011;18301;51.076;17.046;2024-01-30T08:50:10;10.75;;;5.03;;
31716;SDS011;18301;51.076;17.046;2024-01-30T08:55:12;10.48;;;5.85;;
31716;SDS011;18301;51.076;17.046;2024-01-30T09:00:14;13.25;;;5.80;;
31716;SDS011;18301;51.076;17.046;2024-01-30T09:05:16;10.40;;;5.30;;
31716;SDS011;18301;51.076;17.046;2024-01-30T09:10:18;12.23;;;5.70;;
31716;SDS011;18301;51.076;17.046;2024-01-30T09:15:21;12.68;;;6.28;;
31716;SDS011;18301;51.076;17.046;2024-01-30T09:20:26;10.75;;;5.50;;
31716;SDS011;18301;51.076;17.046;2024-01-30T09:25:30;8.98;;;5.45;;
31716;SDS011;18301;51.076;17.046;2024-01-30T09:30:32;9.68;;;5.68;;
31716;SDS011;18301;51.076;17.046;2024-01-30T09:35:34;8.43;;;4.72;;
31716;SDS011;18301;51.076;17.046;2024-01-30T09:40:37;13.35;;;5.43;;
31716;SDS011;18301;51.076;17.046;2024-01-30T09:45:39;8.00;;;4.43;;
31716;SDS011;18301;51.076;17.046;2024-01-30T09:50:43;9.23;;;5.20;;
31716;SDS011;18301;51.076;17.046;2024-01-30T09:55:45;12.60;;;5.65;;
31716;SDS011;18301;51.076;17.046;2024-01-30T10:00:47;7.10;;;4.30;;
31716;SDS011;18301;51.076;17.046;2024-01-30T10:05:50;9.35;;;5.20;;
31716;SDS011;18301;51.076;17.046;2024-01-30T10:10:55;10.82;;;5.80;;
31716;SDS011;18301;51.076;17.046;2024-01-30T10:15:58;12.82;;;5.38;;
31716;SDS011;18301;51.076;17.046;2024-01-30T10:20:59;11.32;;;5.15;;
31716;SDS011;18301;51.076;17.046;2024-01-30T10:26:02;10.18;;;5.55;;
31716;SDS011;18301;51.076;17.046;2024-01-30T10:31:05;10.95;;;4.78;;
31716;SDS011;18301;51.076;17.046;2024-01-30T10:36:07;10.80;;;4.88;;
31716;SDS011;18301;51.076;17.046;2024-01-30T10:41:09;10.00;;;4.70;;
31716;SDS011;18301;51.076;17.046;2024-01-30T10:46:17;10.20;;;5.07;;
31716;SDS011;18301;51.076;17.046;2024-01-30T10:51:26;8.90;;;5.47;;
31716;SDS011;18301;51.076;17.046;2024-01-30T10:56:29;12.93;;;5.90;;
31716;SDS011;18301;51.076;17.046;2024-01-30T11:01:31;11.82;;;5.55;;
31716;SDS011;18301;51.076;17.046;2024-01-30T11:06:40;10.07;;;5.22;;
31716;SDS011;18301;51.076;17.046;2024-01-30T11:16:51;14.55;;;6.53;;
31716;SDS011;18301;51.076;17.046;2024-01-30T11:21:53;11.05;;;6.00;;
31716;SDS011;18301;51.076;17.046;2024-01-30T11:26:56;12.52;;;5.93;;
31716;SDS011;18301;51.076;17.046;2024-01-30T11:32:02;12.15;;;6.28;;
31716;SDS011;18301;51.076;17.046;2024-01-30T11:37:05;9.93;;;5.75;;
31716;SDS011;18301;51.076;17.046;2024-01-30T11:42:13;10.00;;;5.35;;
31716;SDS011;18301;51.076;17.046;2024-01-30T11:47:16;9.95;;;4.93;;
31716;SDS011;18301;51.076;17.046;2024-01-30T11:52:18;10.27;;;5.13;;
31716;SDS011;18301;51.076;17.046;2024-01-30T11:57:19;10.40;;;5.47;;
31716;SDS011;18301;51.076;17.046;2024-01-30T12:02:21;8.82;;;5.43;;
31716;SDS011;18301;51.076;17.046;2024-01-30T12:07:23;10.23;;;5.70;;
31716;SDS011;18301;51.076;17.046;2024-01-30T12:12:25;9.35;;;5.20;;
31716;SDS011;18301;51.076;17.046;2024-01-30T12:17:29;10.07;;;5.28;;
31716;SDS011;18301;51.076;17.046;2024-01-30T12:22:53;10.95;;;5.20;;
31716;SDS011;18301;51.076;17.046;2024-01-30T12:27:56;9.27;;;5.20;;
31716;SDS011;18301;51.076;17.046;2024-01-30T12:32:59;9.23;;;4.93;;
31716;SDS011;18301;51.076;17.046;2024-01-30T12:38:03;9.30;;;5.00;;
31716;SDS011;18301;51.076;17.046;2024-01-30T12:43:05;11.57;;;5.40;;
31716;SDS011;18301;51.076;17.046;2024-01-30T12:48:06;10.50;;;5.15;;
31716;SDS011;18301;51.076;17.046;2024-01-30T12:53:09;10.10;;;5.80;;
31716;SDS011;18301;51.076;17.046;2024-01-30T12:58:10;13.73;;;5.85;;
31716;SDS011;18301;51.076;17.046;2024-01-30T13:03:12;8.98;;;5.00;;
31716;SDS011;18301;51.076;17.046;2024-01-30T13:08:14;7.60;;;4.82;;
31716;SDS011;18301;51.076;17.046;2024-01-30T13:13:16;8.70;;;5.47;;
31716;SDS011;18301;51.076;17.046;2024-01-30T13:18:21;13.30;;;6.10;;
31716;SDS011;18301;51.076;17.046;2024-01-30T13:23:23;11.75;;;5.70;;
31716;SDS011;18301;51.076;17.046;2024-01-30T13:28:24;11.63;;;5.75;;
31716;SDS011;18301;51.076;17.046;2024-01-30T13:33:27;10.85;;;6.30;;
31716;SDS011;18301;51.076;17.046;2024-01-30T13:38:29;11.52;;;5.80;;
31716;SDS011;18301;51.076;17.046;2024-01-30T13:43:31;8.77;;;5.18;;
31716;SDS011;18301;51.076;17.046;2024-01-30T13:48:32;12.02;;;5.30;;
31716;SDS011;18301;51.076;17.046;2024-01-30T13:53:34;10.75;;;6.00;;
31716;SDS011;18301;51.076;17.046;2024-01-30T13:58:36;12.50;;;6.13;;
31716;SDS011;18301;51.076;17.046;2024-01-30T14:03:38;11.43;;;6.65;;
31716;SDS011;18301;51.076;17.046;2024-01-30T14:08:39;8.98;;;5.07;;
31716;SDS011;18301;51.076;17.046;2024-01-30T14:13:45;12.73;;;6.50;;
31716;SDS011;18301;51.076;17.046;2024-01-30T14:18:46;10.50;;;6.00;;
31716;SDS011;18301;51.076;17.046;2024-01-30T14:23:48;10.18;;;6.45;;
31716;SDS011;18301;51.076;17.046;2024-01-30T14:28:50;11.18;;;6.50;;
31716;SDS011;18301;51.076;17.046;2024-01-30T14:33:52;10.48;;;5.85;;
31716;SDS011;18301;51.076;17.046;2024-01-30T14:38:54;12.48;;;6.63;;
31716;SDS011;18301;51.076;17.046;2024-01-30T14:43:56;10.93;;;6.05;;
31716;SDS011;18301;51.076;17.046;2024-01-30T14:48:58;16.42;;;6.82;;
31716;SDS011;18301;51.076;17.046;2024-01-30T14:54:00;12.32;;;7.07;;
31716;SDS011;18301;51.076;17.046;2024-01-30T14:59:02;12.77;;;7.50;;
31716;SDS011;18301;51.076;17.046;2024-01-30T15:04:04;14.30;;;8.38;;
31716;SDS011;18301;51.076;17.046;2024-01-30T15:09:06;15.98;;;8.68;;
31716;SDS011;18301;51.076;17.046;2024-01-30T15:14:08;28.67;;;15.48;;
31716;SDS011;18301;51.076;17.046;2024-01-30T15:19:09;24.52;;;13.27;;
31716;SDS011;18301;51.076;17.046;2024-01-30T15:24:11;24.98;;;12.80;;
31716;SDS011;18301;51.076;17.046;2024-01-30T15:29:16;20.35;;;10.75;;
31716;SDS011;18301;51.076;17.046;2024-01-30T15:34:18;20.30;;;9.20;;
31716;SDS011;18301;51.076;17.046;2024-01-30T15:39:19;15.40;;;9.25;;
31716;SDS011;18301;51.076;17.046;2024-01-30T15:44:21;16.40;;;9.18;;
31716;SDS011;18301;51.076;17.046;2024-01-30T15:49:23;17.73;;;9.40;;
31716;SDS011;18301;51.076;17.046;2024-01-30T15:54:25;15.38;;;8.52;;
31716;SDS011;18301;51.076;17.046;2024-01-30T15:59:26;18.25;;;9.07;;
31716;SDS011;18301;51.076;17.046;2024-01-30T16:04:28;15.48;;;9.00;;
31716;SDS011;18301;51.076;17.046;2024-01-30T16:09:30;21.50;;;10.93;;
31716;SDS011;18301;51.076;17.046;2024-01-30T16:14:33;22.40;;;10.95;;
31716;SDS011;18301;51.076;17.046;2024-01-30T16:19:37;19.52;;;10.43;;
31716;SDS011;18301;51.076;17.046;2024-01-30T16:24:39;21.17;;;11.60;;
31716;SDS011;18301;51.076;17.046;2024-01-30T16:29:41;28.67;;;14.18;;
31716;SDS011;18301;51.076;17.046;2024-01-30T16:34:43;25.02;;;11.77;;
31716;SDS011;18301;51.076;17.046;2024-01-30T16:39:46;21.40;;;11.05;;
31716;SDS011;18301;51.076;17.046;2024-01-30T16:44:47;20.55;;;10.90;;
31716;SDS011;18301;51.076;17.046;2024-01-30T16:49:49;24.02;;;12.07;;
31716;SDS011;18301;51.076;17.046;2024-01-30T16:54:52;18.25;;;10.15;;
31716;SDS011;18301;51.076;17.046;2024-01-30T16:59:54;24.60;;;12.60;;
31716;SDS011;18301;51.076;17.046;2024-01-30T17:04:55;27.50;;;13.35;;
31716;SDS011;18301;51.076;17.046;2024-01-30T17:10:11;29.25;;;13.93;;
31716;SDS011;18301;51.076;17.046;2024-01-30T17:15:14;24.38;;;13.35;;
31716;SDS011;18301;51.076;17.046;2024-01-30T17:20:16;30.10;;;15.27;;
31716;SDS011;18301;51.076;17.046;2024-01-30T17:25:18;26.20;;;13.35;;
31716;SDS011;18301;51.076;17.046;2024-01-30T17:30:20;28.98;;;14.75;;
31716;SDS011;18301;51.076;17.046;2024-01-30T17:35:23;28.83;;;15.02;;
31716;SDS011;18301;51.076;17.046;2024-01-30T17:40:25;30.20;;;15.35;;
31716;SDS011;18301;51.076;17.046;2024-01-30T17:45:26;33.22;;;15.98;;
31716;SDS011;18301;51.076;17.046;2024-01-30T17:50:28;32.92;;;15.18;;
31716;SDS011;18301;51.076;17.046;2024-01-30T17:55:30;30.00;;;14.88;;
31716;SDS011;18301;51.076;17.046;2024-01-30T18:00:32;34.78;;;14.73;;
31716;SDS011;18301;51.076;17.046;2024-01-30T18:05:34;35.50;;;15.85;;
31716;SDS011;18301;51.076;17.046;2024-01-30T18:10:36;31.92;;;15.05;;
31716;SDS011;18301;51.076;17.046;2024-01-30T18:15:38;25.98;;;13.52;;
31716;SDS011;18301;51.076;17.046;2024-01-30T18:20:40;28.45;;;13.70;;
31716;SDS011;18301;51.076;17.046;2024-01-30T18:25:41;22.02;;;12.48;;
31716;SDS011;18301;51.076;17.046;2024-01-30T18:30:43;26.85;;;12.30;;
31716;SDS011;18301;51.076;17.046;2024-01-30T18:35:45;20.77;;;11.05;;
31716;SDS011;18301;51.076;17.046;2024-01-30T18:40:47;26.23;;;13.93;;
31716;SDS011;18301;51.076;17.046;2024-01-30T18:45:52;30.35;;;15.05;;
31716;SDS011;18301;51.076;17.046;2024-01-30T18:50:57;27.63;;;14.82;;
31716;SDS011;18301;51.076;17.046;2024-01-30T18:56:01;29.75;;;15.10;;
31716;SDS011;18301;51.076;17.046;2024-01-30T19:01:03;31.02;;;16.45;;
31716;SDS011;18301;51.076;17.046;2024-01-30T19:06:05;35.25;;;18.17;;
31716;SDS011;18301;51.076;17.046;2024-01-30T19:11:16;36.13;;;17.60;;
31716;SDS011;18301;51.076;17.046;2024-01-30T19:16:19;32.42;;;16.08;;
31716;SDS011;18301;51.076;17.046;2024-01-30T19:21:21;30.45;;;15.30;;
31716;SDS011;18301;51.076;17.046;2024-01-30T19:26:23;29.98;;;14.52;;
31716;SDS011;18301;51.076;17.046;2024-01-30T19:31:25;24.42;;;12.55;;
31716;SDS011;18301;51.076;17.046;2024-01-30T19:36:27;29.90;;;15.18;;
31716;SDS011;18301;51.076;17.046;2024-01-30T19:41:28;28.67;;;15.68;;
31716;SDS011;18301;51.076;17.046;2024-01-30T19:46:30;33.80;;;16.63;;
31716;SDS011;18301;51.076;17.046;2024-01-30T19:51:32;40.85;;;19.23;;
31716;SDS011;18301;51.076;17.046;2024-01-30T19:56:33;33.97;;;17.27;;
31716;SDS011;18301;51.076;17.046;2024-01-30T20:01:35;36.92;;;17.33;;
31716;SDS011;18301;51.076;17.046;2024-01-30T20:06:37;33.22;;;16.58;;
31716;SDS011;18301;51.076;17.046;2024-01-30T20:11:39;33.40;;;15.35;;
31716;SDS011;18301;51.076;17.046;2024-01-30T20:16:42;30.05;;;14.27;;
31716;SDS011;18301;51.076;17.046;2024-01-30T20:21:44;34.00;;;16.00;;
31716;SDS011;18301;51.076;17.046;2024-01-30T20:26:48;35.38;;;17.27;;
31716;SDS011;18301;51.076;17.046;2024-01-30T20:31:51;34.15;;;16.25;;
31716;SDS011;18301;51.076;17.046;2024-01-30T20:36:52;39.03;;;18.85;;
31716;SDS011;18301;51.076;17.046;2024-01-30T20:41:54;33.42;;;17.75;;
31716;SDS011;18301;51.076;17.046;2024-01-30T20:46:57;36.33;;;17.90;;
31716;SDS011;18301;51.076;17.046;2024-01-30T20:51:59;34.97;;;17.10;;
31716;SDS011;18301;51.076;17.046;2024-01-30T20:57:01;37.88;;;17.33;;
31716;SDS011;18301;51.076;17.046;2024-01-30T21:02:03;31.55;;;17.52;;
31716;SDS011;18301;51.076;17.046;2024-01-30T21:07:04;28.90;;;16.10;;
31716;SDS011;18301;51.076;17.046;2024-01-30T21:12:06;31.95;;;17.92;;
31716;SDS011;18301;51.076;17.046;2024-01-30T21:17:08;33.55;;;16.38;;
31716;SDS011;18301;51.076;17.046;2024-01-30T21:22:10;34.28;;;17.10;;
31716;SDS011;18301;51.076;17.046;2024-01-30T21:27:11;37.53;;;17.90;;
31716;SDS011;18301;51.076;17.046;2024-01-30T21:32:13;35.10;;;16.67;;
31716;SDS011;18301;51.076;17.046;2024-01-30T21:37:16;34.88;;;16.45;;
31716;SDS011;18301;51.076;17.046;2024-01-30T21:42:18;35.10;;;17.48;;
31716;SDS011;18301;51.076;17.046;2024-01-30T21:47:21;32.15;;;16.55;;
31716;SDS011;18301;51.076;17.046;2024-01-30T21:52:23;33.05;;;16.65;;
31716;SDS011;18301;51.076;17.046;2024-01-30T21:57:25;34.70;;;17.42;;
31716;SDS011;18301;51.076;17.046;2024-01-30T22:02:26;35.95;;;18.67;;
31716;SDS011;18301;51.076;17.046;2024-01-30T22:07:28;38.28;;;17.50;;
31716;SDS011;18301;51.076;17.046;2024-01-30T22:12:30;34.50;;;18.08;;
31716;SDS011;18301;51.076;17.046;2024-01-30T22:17:32;30.98;;;17.13;;
31716;SDS011;18301;51.076;17.046;2024-01-30T22:22:33;33.03;;;18.42;;
31716;SDS011;18301;51.076;17.046;2024-01-30T22:27:35;33.70;;;18.00;;
31716;SDS011;18301;51.076;17.046;2024-01-30T22:32:38;34.70;;;19.02;;
31716;SDS011;18301;51.076;17.046;2024-01-30T22:37:40;33.70;;;18.00;;
31716;SDS011;18301;51.076;17.046;2024-01-30T22:42:41;34.03;;;18.52;;
31716;SDS011;18301;51.076;17.046;2024-01-30T22:47:43;33.53;;;18.17;;
31716;SDS011;18301;51.076;17.046;2024-01-30T22:52:45;38.65;;;17.98;;
31716;SDS011;18301;51.076;17.046;2024-01-30T22:57:47;35.45;;;18.30;;
31716;SDS011;18301;51.076;17.046;2024-01-30T23:08:22;30.60;;;16.55;;
31716;SDS011;18301;51.076;17.046;2024-01-30T23:13:23;26.63;;;14.88;;
31716;SDS011;18301;51.076;17.046;2024-01-30T23:18:25;29.25;;;15.20;;
31716;SDS011;18301;51.076;17.046;2024-01-30T23:23:27;31.70;;;15.20;;
31716;SDS011;18301;51.076;17.046;2024-01-30T23:28:28;32.38;;;16.95;;
31716;SDS011;18301;51.076;17.046;2024-01-30T23:33:30;39.42;;;18.92;;
31716;SDS011;18301;51.076;17.046;2024-01-30T23:38:32;44.83;;;20.08;;
31716;SDS011;18301;51.076;17.046;2024-01-30T23:43:34;44.67;;;20.90;;
31716;SDS011;18301;51.076;17.046;2024-01-30T23:48:35;41.50;;;20.25;;
31716;SDS011;18301;51.076;17.046;2024-01-30T23:53:37;41.00;;;20.20;;
31716;SDS011;18301;51.076;17.046;2024-01-30T23:58:39;39.95;;;21.08;;
